sensor_id;sensor_type;location;lat;lon;timestamp;P1;durP1;ratioP1;P2;durP2;ratioP2
23099;SDS011;53791;50.696;4.396;2022-12-16T00:00:05;9.60;;;7.08;;
23099;SDS011;53791;50.696;4.396;2022-12-16T00:02:34;13.45;;;6.90;;
23099;SDS011;53791;50.696;4.396;2022-12-16T00:05:02;10.00;;;6.90;;
23099;SDS011;53791;50.696;4.396;2022-12-16T00:07:30;14.40;;;7.33;;
23099;SDS011;53791;50.696;4.396;2022-12-16T00:09:58;8.03;;;4.90;;
23099;SDS011;53791;50.696;4.396;2022-12-16T00:12:25;7.12;;;4.97;;
23099;SDS011;53791;50.696;4.396;2022-12-16T00:14:53;6.33;;;5.42;;
23099;SDS011;53791;50.696;4.396;2022-12-16T00:17:20;12.73;;;6.67;;
23099;SDS011;53791;50.696;4.396;2022-12-16T00:19:48;9.20;;;4.08;;
23099;SDS011;53791;50.696;4.396;2022-12-16T00:22:15;9.70;;;7.72;;
23099;SDS011;53791;50.696;4.396;2022-12-16T00:24:43;6.22;;;5.67;;
23099;SDS011;53791;50.696;4.396;2022-12-16T00:27:10;9.08;;;7.37;;
23099;SDS011;53791;50.696;4.396;2022-12-16T00:29:38;6.00;;;5.40;;
23099;SDS011;53791;50.696;4.396;2022-12-16T00:32:05;15.03;;;5.53;;
23099;SDS011;53791;50.696;4.396;2022-12-16T00:34:33;6.75;;;4.95;;
23099;SDS011;53791;50.696;4.396;2022-12-16T00:37:01;5.70;;;5.15;;
23099;SDS011;53791;50.696;4.396;2022-12-16T00:39:28;5.78;;;4.60;;
23099;SDS011;53791;50.696;4.396;2022-12-16T00:41:56;10.63;;;6.83;;
23099;SDS011;53791;50.696;4.396;2022-12-16T00:44:23;12.33;;;5.10;;
23099;SDS011;53791;50.696;4.396;2022-12-16T00:46:51;7.10;;;4.55;;
23099;SDS011;53791;50.696;4.396;2022-12-16T00:49:18;8.78;;;5.17;;
23099;SDS011;53791;50.696;4.396;2022-12-16T00:51:46;5.67;;;3.55;;
23099;SDS011;53791;50.696;4.396;2022-12-16T00:54:14;5.50;;;4.72;;
23099;SDS011;53791;50.696;4.396;2022-12-16T00:56:41;6.50;;;5.58;;
23099;SDS011;53791;50.696;4.396;2022-12-16T00:59:09;6.80;;;4.95;;
23099;SDS011;53791;50.696;4.396;2022-12-16T01:01:36;9.05;;;6.15;;
23099;SDS011;53791;50.696;4.396;2022-12-16T01:04:04;7.28;;;5.35;;
23099;SDS011;53791;50.696;4.396;2022-12-16T01:06:31;6.75;;;4.15;;
23099;SDS011;53791;50.696;4.396;2022-12-16T01:08:59;3.95;;;3.45;;
23099;SDS011;53791;50.696;4.396;2022-12-16T01:11:26;5.15;;;4.22;;
23099;SDS011;53791;50.696;4.396;2022-12-16T01:13:54;20.05;;;6.50;;
23099;SDS011;53791;50.696;4.396;2022-12-16T01:16:21;27.13;;;5.42;;
23099;SDS011;53791;50.696;4.396;2022-12-16T01:18:49;7.40;;;4.53;;
23099;SDS011;53791;50.696;4.396;2022-12-16T01:21:18;7.40;;;4.30;;
23099;SDS011;53791;50.696;4.396;2022-12-16T01:23:46;9.10;;;5.25;;
23099;SDS011;53791;50.696;4.396;2022-12-16T01:26:14;12.98;;;5.58;;
23099;SDS011;53791;50.696;4.396;2022-12-16T01:28:43;7.17;;;5.22;;
23099;SDS011;53791;50.696;4.396;2022-12-16T01:31:13;9.65;;;5.60;;
23099;SDS011;53791;50.696;4.396;2022-12-16T01:33:43;12.93;;;5.72;;
23099;SDS011;53791;50.696;4.396;2022-12-16T01:36:11;7.78;;;6.03;;
23099;SDS011;53791;50.696;4.396;2022-12-16T01:38:40;6.60;;;5.08;;
23099;SDS011;53791;50.696;4.396;2022-12-16T01:41:09;3.77;;;3.45;;
23099;SDS011;53791;50.696;4.396;2022-12-16T01:43:38;5.17;;;4.30;;
23099;SDS011;53791;50.696;4.396;2022-12-16T01:46:19;6.72;;;4.42;;
23099;SDS011;53791;50.696;4.396;2022-12-16T01:48:53;10.48;;;5.25;;
23099;SDS011;53791;50.696;4.396;2022-12-16T01:51:26;5.65;;;5.08;;
23099;SDS011;53791;50.696;4.396;2022-12-16T01:56:59;9.70;;;6.78;;
23099;SDS011;53791;50.696;4.396;2022-12-16T01:59:28;14.38;;;6.58;;
23099;SDS011;53791;50.696;4.396;2022-12-16T02:01:58;7.53;;;5.33;;
23099;SDS011;53791;50.696;4.396;2022-12-16T02:04:26;9.00;;;5.37;;
23099;SDS011;53791;50.696;4.396;2022-12-16T02:06:53;8.45;;;6.05;;
23099;SDS011;53791;50.696;4.396;2022-12-16T02:09:22;7.58;;;4.95;;
23099;SDS011;53791;50.696;4.396;2022-12-16T02:12:09;7.78;;;4.53;;
23099;SDS011;53791;50.696;4.396;2022-12-16T02:14:59;9.58;;;5.03;;
23099;SDS011;53791;50.696;4.396;2022-12-16T02:17:35;13.05;;;4.83;;
23099;SDS011;53791;50.696;4.396;2022-12-16T02:20:13;5.22;;;4.53;;
23099;SDS011;53791;50.696;4.396;2022-12-16T02:37:13;10.30;;;4.75;;
23099;SDS011;53791;50.696;4.396;2022-12-16T02:39:52;4.65;;;3.50;;
23099;SDS011;53791;50.696;4.396;2022-12-16T02:42:31;3.50;;;3.10;;
23099;SDS011;53791;50.696;4.396;2022-12-16T02:45:12;6.40;;;3.67;;
23099;SDS011;53791;50.696;4.396;2022-12-16T02:47:44;4.78;;;3.90;;
23099;SDS011;53791;50.696;4.396;2022-12-16T02:52:55;10.45;;;5.55;;
23099;SDS011;53791;50.696;4.396;2022-12-16T02:55:32;5.53;;;3.85;;
23099;SDS011;53791;50.696;4.396;2022-12-16T02:58:02;10.58;;;5.72;;
23099;SDS011;53791;50.696;4.396;2022-12-16T03:00:56;9.03;;;4.42;;
23099;SDS011;53791;50.696;4.396;2022-12-16T03:03:37;3.98;;;3.58;;
23099;SDS011;53791;50.696;4.396;2022-12-16T03:06:02;4.47;;;3.50;;
23099;SDS011;53791;50.696;4.396;2022-12-16T03:08:32;3.92;;;3.55;;
23099;SDS011;53791;50.696;4.396;2022-12-16T03:11:04;11.30;;;5.37;;
23099;SDS011;53791;50.696;4.396;2022-12-16T03:13:49;6.33;;;3.87;;
23099;SDS011;53791;50.696;4.396;2022-12-16T03:16:13;4.95;;;4.28;;
23099;SDS011;53791;50.696;4.396;2022-12-16T03:18:44;6.87;;;3.98;;
23099;SDS011;53791;50.696;4.396;2022-12-16T03:21:15;4.40;;;3.52;;
23099;SDS011;53791;50.696;4.396;2022-12-16T03:23:49;7.62;;;4.85;;
23099;SDS011;53791;50.696;4.396;2022-12-16T03:26:18;4.85;;;3.62;;
23099;SDS011;53791;50.696;4.396;2022-12-16T03:31:54;11.60;;;4.17;;
23099;SDS011;53791;50.696;4.396;2022-12-16T03:34:35;4.25;;;2.83;;
23099;SDS011;53791;50.696;4.396;2022-12-16T03:37:07;8.05;;;4.72;;
23099;SDS011;53791;50.696;4.396;2022-12-16T03:39:41;5.85;;;4.47;;
23099;SDS011;53791;50.696;4.396;2022-12-16T03:42:06;3.70;;;3.33;;
23099;SDS011;53791;50.696;4.396;2022-12-16T03:44:35;5.47;;;4.92;;
23099;SDS011;53791;50.696;4.396;2022-12-16T03:47:04;6.72;;;4.60;;
23099;SDS011;53791;50.696;4.396;2022-12-16T03:49:32;8.60;;;5.70;;
23099;SDS011;53791;50.696;4.396;2022-12-16T03:51:59;4.12;;;3.47;;
23099;SDS011;53791;50.696;4.396;2022-12-16T03:54:27;5.97;;;4.42;;
23099;SDS011;53791;50.696;4.396;2022-12-16T03:56:54;7.22;;;3.42;;
23099;SDS011;53791;50.696;4.396;2022-12-16T03:59:22;7.87;;;3.62;;
23099;SDS011;53791;50.696;4.396;2022-12-16T04:01:50;9.93;;;4.72;;
23099;SDS011;53791;50.696;4.396;2022-12-16T04:04:18;9.00;;;5.47;;
23099;SDS011;53791;50.696;4.396;2022-12-16T04:06:45;7.20;;;4.20;;
23099;SDS011;53791;50.696;4.396;2022-12-16T04:09:15;7.20;;;5.03;;
23099;SDS011;53791;50.696;4.396;2022-12-16T04:11:42;8.03;;;5.45;;
23099;SDS011;53791;50.696;4.396;2022-12-16T04:14:28;4.30;;;3.33;;
23099;SDS011;53791;50.696;4.396;2022-12-16T04:17:13;3.70;;;3.30;;
23099;SDS011;53791;50.696;4.396;2022-12-16T04:19:59;7.83;;;5.12;;
23099;SDS011;53791;50.696;4.396;2022-12-16T04:22:45;8.70;;;4.42;;
23099;SDS011;53791;50.696;4.396;2022-12-16T04:25:30;6.03;;;5.33;;
23099;SDS011;53791;50.696;4.396;2022-12-16T04:28:00;6.67;;;3.90;;
23099;SDS011;53791;50.696;4.396;2022-12-16T04:30:29;17.02;;;4.40;;
23099;SDS011;53791;50.696;4.396;2022-12-16T04:33:02;4.65;;;3.95;;
23099;SDS011;53791;50.696;4.396;2022-12-16T04:35:55;10.60;;;3.95;;
23099;SDS011;53791;50.696;4.396;2022-12-16T04:38:40;5.05;;;3.87;;
23099;SDS011;53791;50.696;4.396;2022-12-16T04:41:26;7.28;;;5.28;;
23099;SDS011;53791;50.696;4.396;2022-12-16T04:44:12;4.40;;;3.75;;
23099;SDS011;53791;50.696;4.396;2022-12-16T04:46:57;7.60;;;5.47;;
23099;SDS011;53791;50.696;4.396;2022-12-16T04:49:42;4.28;;;3.55;;
23099;SDS011;53791;50.696;4.396;2022-12-16T04:52:28;5.62;;;3.83;;
23099;SDS011;53791;50.696;4.396;2022-12-16T04:55:13;6.70;;;4.25;;
23099;SDS011;53791;50.696;4.396;2022-12-16T04:57:59;8.80;;;5.55;;
23099;SDS011;53791;50.696;4.396;2022-12-16T05:00:46;6.95;;;4.37;;
23099;SDS011;53791;50.696;4.396;2022-12-16T05:03:32;4.92;;;3.77;;
23099;SDS011;53791;50.696;4.396;2022-12-16T05:06:18;4.17;;;3.77;;
23099;SDS011;53791;50.696;4.396;2022-12-16T05:09:04;13.00;;;4.87;;
23099;SDS011;53791;50.696;4.396;2022-12-16T05:11:50;15.18;;;5.15;;
23099;SDS011;53791;50.696;4.396;2022-12-16T05:14:35;4.67;;;4.03;;
23099;SDS011;53791;50.696;4.396;2022-12-16T05:17:21;10.23;;;5.95;;
23099;SDS011;53791;50.696;4.396;2022-12-16T05:20:07;6.87;;;4.20;;
23099;SDS011;53791;50.696;4.396;2022-12-16T05:22:57;4.75;;;3.35;;
23099;SDS011;53791;50.696;4.396;2022-12-16T05:25:39;7.15;;;4.75;;
23099;SDS011;53791;50.696;4.396;2022-12-16T05:28:25;9.40;;;3.83;;
23099;SDS011;53791;50.696;4.396;2022-12-16T05:31:11;5.83;;;3.17;;
23099;SDS011;53791;50.696;4.396;2022-12-16T05:33:56;4.58;;;3.00;;
23099;SDS011;53791;50.696;4.396;2022-12-16T05:36:41;6.87;;;3.65;;
23099;SDS011;53791;50.696;4.396;2022-12-16T05:39:26;3.52;;;3.20;;
23099;SDS011;53791;50.696;4.396;2022-12-16T05:42:12;2.80;;;2.47;;
23099;SDS011;53791;50.696;4.396;2022-12-16T05:44:57;5.50;;;3.55;;
23099;SDS011;53791;50.696;4.396;2022-12-16T05:47:43;10.10;;;5.22;;
23099;SDS011;53791;50.696;4.396;2022-12-16T05:50:29;5.85;;;5.17;;
23099;SDS011;53791;50.696;4.396;2022-12-16T05:53:14;3.75;;;2.85;;
23099;SDS011;53791;50.696;4.396;2022-12-16T05:56:00;3.67;;;3.10;;
23099;SDS011;53791;50.696;4.396;2022-12-16T05:58:46;3.35;;;3.05;;
23099;SDS011;53791;50.696;4.396;2022-12-16T06:01:31;4.33;;;3.00;;
23099;SDS011;53791;50.696;4.396;2022-12-16T06:04:17;4.67;;;4.08;;
23099;SDS011;53791;50.696;4.396;2022-12-16T06:07:02;5.85;;;3.40;;
23099;SDS011;53791;50.696;4.396;2022-12-16T06:09:47;5.50;;;3.55;;
23099;SDS011;53791;50.696;4.396;2022-12-16T06:12:33;2.72;;;2.50;;
23099;SDS011;53791;50.696;4.396;2022-12-16T06:15:18;8.73;;;3.52;;
23099;SDS011;53791;50.696;4.396;2022-12-16T06:18:04;3.22;;;2.60;;
23099;SDS011;53791;50.696;4.396;2022-12-16T06:20:49;5.28;;;4.28;;
23099;SDS011;53791;50.696;4.396;2022-12-16T06:23:34;2.40;;;2.15;;
23099;SDS011;53791;50.696;4.396;2022-12-16T06:26:19;8.43;;;2.47;;
23099;SDS011;53791;50.696;4.396;2022-12-16T06:29:06;4.15;;;2.33;;
23099;SDS011;53791;50.696;4.396;2022-12-16T06:31:52;3.83;;;2.62;;
23099;SDS011;53791;50.696;4.396;2022-12-16T06:34:37;3.50;;;2.85;;
23099;SDS011;53791;50.696;4.396;2022-12-16T06:37:23;3.70;;;3.12;;
23099;SDS011;53791;50.696;4.396;2022-12-16T06:40:08;6.03;;;2.62;;
23099;SDS011;53791;50.696;4.396;2022-12-16T06:42:54;4.92;;;3.55;;
23099;SDS011;53791;50.696;4.396;2022-12-16T06:45:39;3.25;;;2.95;;
23099;SDS011;53791;50.696;4.396;2022-12-16T06:48:25;7.28;;;3.62;;
23099;SDS011;53791;50.696;4.396;2022-12-16T06:51:10;5.03;;;3.35;;
23099;SDS011;53791;50.696;4.396;2022-12-16T06:53:56;6.05;;;3.08;;
23099;SDS011;53791;50.696;4.396;2022-12-16T06:56:41;4.22;;;3.22;;
23099;SDS011;53791;50.696;4.396;2022-12-16T06:59:26;3.22;;;2.83;;
23099;SDS011;53791;50.696;4.396;2022-12-16T07:02:12;4.87;;;3.25;;
23099;SDS011;53791;50.696;4.396;2022-12-16T07:04:57;12.23;;;3.62;;
23099;SDS011;53791;50.696;4.396;2022-12-16T07:07:46;12.73;;;4.20;;
23099;SDS011;53791;50.696;4.396;2022-12-16T07:10:35;6.60;;;3.70;;
23099;SDS011;53791;50.696;4.396;2022-12-16T07:13:20;6.92;;;3.37;;
23099;SDS011;53791;50.696;4.396;2022-12-16T07:16:05;3.65;;;3.27;;
23099;SDS011;53791;50.696;4.396;2022-12-16T07:18:51;3.12;;;2.75;;
23099;SDS011;53791;50.696;4.396;2022-12-16T07:21:36;2.62;;;2.42;;
23099;SDS011;53791;50.696;4.396;2022-12-16T07:24:21;3.17;;;2.45;;
23099;SDS011;53791;50.696;4.396;2022-12-16T07:27:07;4.20;;;2.77;;
23099;SDS011;53791;50.696;4.396;2022-12-16T07:29:52;3.22;;;2.92;;
23099;SDS011;53791;50.696;4.396;2022-12-16T07:32:37;4.70;;;3.52;;
23099;SDS011;53791;50.696;4.396;2022-12-16T07:35:23;3.67;;;3.00;;
23099;SDS011;53791;50.696;4.396;2022-12-16T07:38:08;4.37;;;3.67;;
23099;SDS011;53791;50.696;4.396;2022-12-16T07:40:53;7.62;;;2.90;;
23099;SDS011;53791;50.696;4.396;2022-12-16T07:43:39;2.72;;;2.30;;
23099;SDS011;53791;50.696;4.396;2022-12-16T07:46:24;5.37;;;3.15;;
23099;SDS011;53791;50.696;4.396;2022-12-16T07:49:09;3.83;;;2.85;;
23099;SDS011;53791;50.696;4.396;2022-12-16T07:51:55;8.55;;;3.80;;
23099;SDS011;53791;50.696;4.396;2022-12-16T07:54:40;5.50;;;3.87;;
23099;SDS011;53791;50.696;4.396;2022-12-16T07:57:25;5.92;;;3.65;;
23099;SDS011;53791;50.696;4.396;2022-12-16T08:00:11;3.10;;;2.80;;
23099;SDS011;53791;50.696;4.396;2022-12-16T08:02:56;15.72;;;3.30;;
23099;SDS011;53791;50.696;4.396;2022-12-16T08:05:42;6.10;;;3.05;;
23099;SDS011;53791;50.696;4.396;2022-12-16T08:08:27;5.37;;;4.08;;
23099;SDS011;53791;50.696;4.396;2022-12-16T08:11:12;2.77;;;2.22;;
23099;SDS011;53791;50.696;4.396;2022-12-16T08:13:57;4.00;;;2.92;;
23099;SDS011;53791;50.696;4.396;2022-12-16T08:16:42;4.03;;;2.40;;
23099;SDS011;53791;50.696;4.396;2022-12-16T08:19:28;5.75;;;2.77;;
23099;SDS011;53791;50.696;4.396;2022-12-16T08:22:13;6.20;;;2.98;;
23099;SDS011;53791;50.696;4.396;2022-12-16T08:24:58;7.05;;;2.85;;
23099;SDS011;53791;50.696;4.396;2022-12-16T08:27:52;3.05;;;2.77;;
23099;SDS011;53791;50.696;4.396;2022-12-16T08:30:35;2.65;;;2.40;;
23099;SDS011;53791;50.696;4.396;2022-12-16T08:33:16;2.83;;;2.30;;
23099;SDS011;53791;50.696;4.396;2022-12-16T08:36:01;3.42;;;2.80;;
23099;SDS011;53791;50.696;4.396;2022-12-16T08:38:46;8.95;;;3.30;;
23099;SDS011;53791;50.696;4.396;2022-12-16T08:41:31;4.08;;;3.00;;
23099;SDS011;53791;50.696;4.396;2022-12-16T08:44:17;8.25;;;3.72;;
23099;SDS011;53791;50.696;4.396;2022-12-16T08:47:02;4.58;;;2.90;;
23099;SDS011;53791;50.696;4.396;2022-12-16T08:49:47;3.75;;;3.27;;
23099;SDS011;53791;50.696;4.396;2022-12-16T08:52:32;11.18;;;4.85;;
23099;SDS011;53791;50.696;4.396;2022-12-16T08:55:18;3.15;;;2.50;;
23099;SDS011;53791;50.696;4.396;2022-12-16T08:58:03;4.80;;;2.80;;
23099;SDS011;53791;50.696;4.396;2022-12-16T09:00:49;4.37;;;3.37;;
23099;SDS011;53791;50.696;4.396;2022-12-16T09:03:35;2.75;;;2.52;;
23099;SDS011;53791;50.696;4.396;2022-12-16T09:06:20;4.45;;;3.22;;
23099;SDS011;53791;50.696;4.396;2022-12-16T09:09:05;3.62;;;3.08;;
23099;SDS011;53791;50.696;4.396;2022-12-16T09:11:51;5.97;;;4.20;;
23099;SDS011;53791;50.696;4.396;2022-12-16T09:14:37;2.47;;;2.20;;
23099;SDS011;53791;50.696;4.396;2022-12-16T09:17:22;3.22;;;2.92;;
23099;SDS011;53791;50.696;4.396;2022-12-16T09:20:08;6.92;;;3.50;;
23099;SDS011;53791;50.696;4.396;2022-12-16T09:22:54;3.50;;;3.00;;
23099;SDS011;53791;50.696;4.396;2022-12-16T09:25:39;4.92;;;3.30;;
23099;SDS011;53791;50.696;4.396;2022-12-16T09:28:25;4.47;;;3.55;;
23099;SDS011;53791;50.696;4.396;2022-12-16T09:31:11;6.72;;;4.35;;
23099;SDS011;53791;50.696;4.396;2022-12-16T09:33:56;4.25;;;3.35;;
23099;SDS011;53791;50.696;4.396;2022-12-16T09:36:42;4.55;;;2.58;;
23099;SDS011;53791;50.696;4.396;2022-12-16T09:39:27;2.85;;;2.50;;
23099;SDS011;53791;50.696;4.396;2022-12-16T09:42:17;6.80;;;4.17;;
23099;SDS011;53791;50.696;4.396;2022-12-16T09:45:19;4.12;;;2.87;;
23099;SDS011;53791;50.696;4.396;2022-12-16T09:48:09;3.85;;;3.22;;
23099;SDS011;53791;50.696;4.396;2022-12-16T09:50:54;6.60;;;3.17;;
23099;SDS011;53791;50.696;4.396;2022-12-16T09:53:43;3.22;;;2.92;;
23099;SDS011;53791;50.696;4.396;2022-12-16T09:56:33;3.00;;;2.67;;
23099;SDS011;53791;50.696;4.396;2022-12-16T09:59:24;3.20;;;2.90;;
23099;SDS011;53791;50.696;4.396;2022-12-16T10:02:15;4.12;;;3.25;;
23099;SDS011;53791;50.696;4.396;2022-12-16T10:05:02;3.65;;;3.02;;
23099;SDS011;53791;50.696;4.396;2022-12-16T10:07:52;4.12;;;3.65;;
23099;SDS011;53791;50.696;4.396;2022-12-16T10:10:48;4.03;;;3.62;;
23099;SDS011;53791;50.696;4.396;2022-12-16T10:13:39;4.90;;;3.45;;
23099;SDS011;53791;50.696;4.396;2022-12-16T10:16:49;4.03;;;3.62;;
23099;SDS011;53791;50.696;4.396;2022-12-16T10:19:51;3.35;;;3.05;;
23099;SDS011;53791;50.696;4.396;2022-12-16T10:25:45;4.15;;;3.67;;
23099;SDS011;53791;50.696;4.396;2022-12-16T10:31:31;4.30;;;3.90;;
23099;SDS011;53791;50.696;4.396;2022-12-16T10:34:19;3.60;;;3.25;;
23099;SDS011;53791;50.696;4.396;2022-12-16T10:37:07;5.80;;;3.72;;
23099;SDS011;53791;50.696;4.396;2022-12-16T10:39:55;4.97;;;3.77;;
23099;SDS011;53791;50.696;4.396;2022-12-16T10:42:46;3.58;;;3.08;;
23099;SDS011;53791;50.696;4.396;2022-12-16T10:45:34;3.80;;;3.37;;
23099;SDS011;53791;50.696;4.396;2022-12-16T10:48:25;3.20;;;2.90;;
23099;SDS011;53791;50.696;4.396;2022-12-16T10:51:16;8.38;;;4.40;;
23099;SDS011;53791;50.696;4.396;2022-12-16T10:57:13;5.03;;;3.22;;
23099;SDS011;53791;50.696;4.396;2022-12-16T11:02:54;3.55;;;3.20;;
23099;SDS011;53791;50.696;4.396;2022-12-16T11:05:39;6.00;;;4.12;;
23099;SDS011;53791;50.696;4.396;2022-12-16T11:08:27;4.58;;;4.15;;
23099;SDS011;53791;50.696;4.396;2022-12-16T11:11:23;4.50;;;3.95;;
23099;SDS011;53791;50.696;4.396;2022-12-16T11:14:17;8.95;;;4.37;;
23099;SDS011;53791;50.696;4.396;2022-12-16T11:17:22;5.00;;;4.37;;
23099;SDS011;53791;50.696;4.396;2022-12-16T11:20:19;5.03;;;4.53;;
23099;SDS011;53791;50.696;4.396;2022-12-16T11:23:07;4.65;;;4.25;;
23099;SDS011;53791;50.696;4.396;2022-12-16T11:31:55;4.78;;;4.17;;
23099;SDS011;53791;50.696;4.396;2022-12-16T11:34:45;4.28;;;3.87;;
23099;SDS011;53791;50.696;4.396;2022-12-16T11:37:35;5.70;;;4.28;;
23099;SDS011;53791;50.696;4.396;2022-12-16T11:40:23;5.50;;;4.33;;
23099;SDS011;53791;50.696;4.396;2022-12-16T11:43:10;4.62;;;4.08;;
23099;SDS011;53791;50.696;4.396;2022-12-16T11:45:58;5.35;;;3.72;;
23099;SDS011;53791;50.696;4.396;2022-12-16T11:48:53;4.45;;;4.03;;
23099;SDS011;53791;50.696;4.396;2022-12-16T11:51:40;5.60;;;4.62;;
23099;SDS011;53791;50.696;4.396;2022-12-16T11:54:28;7.75;;;4.35;;
23099;SDS011;53791;50.696;4.396;2022-12-16T11:57:20;4.85;;;4.08;;
23099;SDS011;53791;50.696;4.396;2022-12-16T12:00:12;5.05;;;3.92;;
23099;SDS011;53791;50.696;4.396;2022-12-16T12:06:08;4.12;;;3.72;;
23099;SDS011;53791;50.696;4.396;2022-12-16T12:09:00;3.25;;;2.77;;
23099;SDS011;53791;50.696;4.396;2022-12-16T12:11:53;7.40;;;3.77;;
23099;SDS011;53791;50.696;4.396;2022-12-16T12:14:49;3.92;;;3.17;;
23099;SDS011;53791;50.696;4.396;2022-12-16T12:17:46;3.75;;;3.27;;
23099;SDS011;53791;50.696;4.396;2022-12-16T12:26:36;4.10;;;3.42;;
23099;SDS011;53791;50.696;4.396;2022-12-16T12:32:42;2.72;;;2.37;;
23099;SDS011;53791;50.696;4.396;2022-12-16T12:38:11;5.30;;;3.95;;
23099;SDS011;53791;50.696;4.396;2022-12-16T12:41:17;7.05;;;3.33;;
23099;SDS011;53791;50.696;4.396;2022-12-16T12:47:01;3.65;;;3.17;;
23099;SDS011;53791;50.696;4.396;2022-12-16T12:49:58;3.37;;;2.50;;
23099;SDS011;53791;50.696;4.396;2022-12-16T12:55:56;3.60;;;3.08;;
23099;SDS011;53791;50.696;4.396;2022-12-16T12:58:26;6.62;;;3.05;;
23099;SDS011;53791;50.696;4.396;2022-12-16T13:01:14;2.33;;;2.12;;
23099;SDS011;53791;50.696;4.396;2022-12-16T13:04:09;2.50;;;2.30;;
23099;SDS011;53791;50.696;4.396;2022-12-16T13:06:56;2.90;;;2.62;;
23099;SDS011;53791;50.696;4.396;2022-12-16T13:09:42;3.27;;;2.98;;
23099;SDS011;53791;50.696;4.396;2022-12-16T13:12:28;2.65;;;2.42;;
23099;SDS011;53791;50.696;4.396;2022-12-16T13:15:19;5.12;;;3.62;;
23099;SDS011;53791;50.696;4.396;2022-12-16T13:18:19;2.35;;;2.15;;
23099;SDS011;53791;50.696;4.396;2022-12-16T13:24:44;2.85;;;2.30;;
23099;SDS011;53791;50.696;4.396;2022-12-16T13:27:22;11.18;;;3.33;;
23099;SDS011;53791;50.696;4.396;2022-12-16T13:30:20;2.95;;;2.55;;
23099;SDS011;53791;50.696;4.396;2022-12-16T13:33:05;2.35;;;2.15;;
23099;SDS011;53791;50.696;4.396;2022-12-16T13:36:07;2.75;;;2.55;;
23099;SDS011;53791;50.696;4.396;2022-12-16T13:38:56;3.85;;;2.65;;
23099;SDS011;53791;50.696;4.396;2022-12-16T13:41:47;6.78;;;3.40;;
23099;SDS011;53791;50.696;4.396;2022-12-16T13:47:31;2.52;;;2.33;;
23099;SDS011;53791;50.696;4.396;2022-12-16T13:50:36;3.08;;;2.50;;
23099;SDS011;53791;50.696;4.396;2022-12-16T13:53:25;2.77;;;2.27;;
23099;SDS011;53791;50.696;4.396;2022-12-16T13:56:13;2.30;;;2.10;;
23099;SDS011;53791;50.696;4.396;2022-12-16T13:59:03;3.15;;;2.85;;
23099;SDS011;53791;50.696;4.396;2022-12-16T14:01:51;2.60;;;2.40;;
23099;SDS011;53791;50.696;4.396;2022-12-16T14:04:43;3.12;;;2.83;;
23099;SDS011;53791;50.696;4.396;2022-12-16T14:07:36;2.20;;;2.00;;
23099;SDS011;53791;50.696;4.396;2022-12-16T14:10:28;3.05;;;2.42;;
23099;SDS011;53791;50.696;4.396;2022-12-16T14:13:27;4.22;;;3.25;;
23099;SDS011;53791;50.696;4.396;2022-12-16T14:19:31;2.50;;;2.30;;
23099;SDS011;53791;50.696;4.396;2022-12-16T14:25:25;2.52;;;2.15;;
23099;SDS011;53791;50.696;4.396;2022-12-16T14:28:29;4.95;;;3.27;;
23099;SDS011;53791;50.696;4.396;2022-12-16T14:31:26;2.40;;;2.20;;
23099;SDS011;53791;50.696;4.396;2022-12-16T14:34:22;2.17;;;1.92;;
23099;SDS011;53791;50.696;4.396;2022-12-16T14:37:16;3.67;;;3.25;;
23099;SDS011;53791;50.696;4.396;2022-12-16T14:40:22;2.80;;;2.40;;
23099;SDS011;53791;50.696;4.396;2022-12-16T14:43:18;4.08;;;2.77;;
23099;SDS011;53791;50.696;4.396;2022-12-16T14:49:16;3.10;;;2.70;;
23099;SDS011;53791;50.696;4.396;2022-12-16T14:52:20;2.80;;;2.50;;
23099;SDS011;53791;50.696;4.396;2022-12-16T14:58:08;4.92;;;2.70;;
23099;SDS011;53791;50.696;4.396;2022-12-16T15:00:56;2.85;;;2.55;;
23099;SDS011;53791;50.696;4.396;2022-12-16T15:03:44;2.30;;;2.00;;
23099;SDS011;53791;50.696;4.396;2022-12-16T15:06:25;3.40;;;2.92;;
23099;SDS011;53791;50.696;4.396;2022-12-16T15:09:11;2.55;;;2.30;;
23099;SDS011;53791;50.696;4.396;2022-12-16T15:11:59;2.85;;;2.55;;
23099;SDS011;53791;50.696;4.396;2022-12-16T15:14:45;2.92;;;2.52;;
23099;SDS011;53791;50.696;4.396;2022-12-16T15:20:35;2.92;;;2.62;;
23099;SDS011;53791;50.696;4.396;2022-12-16T15:23:29;2.65;;;2.27;;
23099;SDS011;53791;50.696;4.396;2022-12-16T15:26:18;3.12;;;2.52;;
23099;SDS011;53791;50.696;4.396;2022-12-16T15:29:02;5.65;;;2.65;;
23099;SDS011;53791;50.696;4.396;2022-12-16T15:31:47;8.38;;;3.40;;
23099;SDS011;53791;50.696;4.396;2022-12-16T15:34:46;2.98;;;2.33;;
23099;SDS011;53791;50.696;4.396;2022-12-16T15:37:40;3.87;;;2.83;;
23099;SDS011;53791;50.696;4.396;2022-12-16T15:40:27;3.75;;;2.85;;
23099;SDS011;53791;50.696;4.396;2022-12-16T15:43:22;5.60;;;3.17;;
23099;SDS011;53791;50.696;4.396;2022-12-16T15:46:21;3.40;;;2.75;;
23099;SDS011;53791;50.696;4.396;2022-12-16T15:55:25;2.77;;;2.47;;
23099;SDS011;53791;50.696;4.396;2022-12-16T15:58:19;2.65;;;2.30;;
23099;SDS011;53791;50.696;4.396;2022-12-16T16:01:08;2.00;;;1.75;;
23099;SDS011;53791;50.696;4.396;2022-12-16T16:03:56;2.95;;;2.55;;
23099;SDS011;53791;50.696;4.396;2022-12-16T16:06:44;3.08;;;2.77;;
23099;SDS011;53791;50.696;4.396;2022-12-16T16:09:29;6.67;;;2.75;;
23099;SDS011;53791;50.696;4.396;2022-12-16T16:12:17;7.58;;;3.50;;
23099;SDS011;53791;50.696;4.396;2022-12-16T16:15:05;10.78;;;4.58;;
23099;SDS011;53791;50.696;4.396;2022-12-16T16:17:55;10.18;;;2.58;;
23099;SDS011;53791;50.696;4.396;2022-12-16T16:20:42;5.12;;;3.40;;
23099;SDS011;53791;50.696;4.396;2022-12-16T16:23:28;5.10;;;2.87;;
23099;SDS011;53791;50.696;4.396;2022-12-16T16:26:15;5.92;;;4.28;;
23099;SDS011;53791;50.696;4.396;2022-12-16T16:29:03;16.73;;;4.60;;
23099;SDS011;53791;50.696;4.396;2022-12-16T16:31:51;6.95;;;4.53;;
23099;SDS011;53791;50.696;4.396;2022-12-16T16:34:36;6.10;;;3.65;;
23099;SDS011;53791;50.696;4.396;2022-12-16T16:37:21;8.63;;;5.83;;
23099;SDS011;53791;50.696;4.396;2022-12-16T16:43:01;4.78;;;3.85;;
23099;SDS011;53791;50.696;4.396;2022-12-16T16:45:51;6.30;;;5.03;;
23099;SDS011;53791;50.696;4.396;2022-12-16T16:48:36;8.30;;;4.75;;
23099;SDS011;53791;50.696;4.396;2022-12-16T16:51:22;4.62;;;3.85;;
23099;SDS011;53791;50.696;4.396;2022-12-16T16:54:08;5.83;;;4.53;;
23099;SDS011;53791;50.696;4.396;2022-12-16T16:56:53;9.53;;;4.25;;
23099;SDS011;53791;50.696;4.396;2022-12-16T16:59:39;8.98;;;5.75;;
23099;SDS011;53791;50.696;4.396;2022-12-16T17:02:24;10.10;;;5.45;;
23099;SDS011;53791;50.696;4.396;2022-12-16T17:05:10;10.03;;;5.55;;
23099;SDS011;53791;50.696;4.396;2022-12-16T17:07:55;10.95;;;4.05;;
23099;SDS011;53791;50.696;4.396;2022-12-16T17:10:41;7.90;;;5.37;;
23099;SDS011;53791;50.696;4.396;2022-12-16T17:13:26;9.25;;;6.90;;
23099;SDS011;53791;50.696;4.396;2022-12-16T17:16:12;8.48;;;5.78;;
23099;SDS011;53791;50.696;4.396;2022-12-16T17:18:58;6.70;;;3.62;;
23099;SDS011;53791;50.696;4.396;2022-12-16T17:21:43;11.65;;;6.28;;
23099;SDS011;53791;50.696;4.396;2022-12-16T17:24:29;6.05;;;4.37;;
23099;SDS011;53791;50.696;4.396;2022-12-16T17:27:19;8.23;;;5.50;;
23099;SDS011;53791;50.696;4.396;2022-12-16T17:30:08;5.75;;;5.17;;
23099;SDS011;53791;50.696;4.396;2022-12-16T17:33:03;7.35;;;4.62;;
23099;SDS011;53791;50.696;4.396;2022-12-16T17:35:48;6.67;;;5.35;;
23099;SDS011;53791;50.696;4.396;2022-12-16T17:38:38;4.47;;;3.95;;
23099;SDS011;53791;50.696;4.396;2022-12-16T17:41:28;8.28;;;5.65;;
23099;SDS011;53791;50.696;4.396;2022-12-16T17:44:16;6.17;;;4.15;;
23099;SDS011;53791;50.696;4.396;2022-12-16T17:47:01;9.55;;;5.00;;
23099;SDS011;53791;50.696;4.396;2022-12-16T17:49:48;11.95;;;5.33;;
23099;SDS011;53791;50.696;4.396;2022-12-16T17:52:33;5.15;;;3.87;;
23099;SDS011;53791;50.696;4.396;2022-12-16T17:55:19;9.00;;;4.55;;